Abiquiu, NM (87510)

6:16 PM MDT on August 30, 2014 (GMT -0600)
Plaza Blanca | Change Station
CLOSE
Current Station
Personal Weather Station
Location: Abiquiu, NM
Elevation: 6154 ft
Nearby Weather Stations

Elev 6154 ft 36.22 °N, 106.28 °W | Updated 12 seconds ago

Partly Cloudy
Partly Cloudy
83.9 °F
Feels Like 81 °F
N
5.4
Wind Variable Wind from WSW
Gusts 5.4 mph

Today
High -- | Low -- °F
--% Chance of Precip.
Yesterday
High -- | Low -- °F
Precip. -- in
6:35 AM 7:35 PM
Waxing Crescent, 26% visible
Pressure 30.18 in
Visibility 10.0 miles
Clouds Clear
Heat Index 81 °F
Dew Point 37 °F
Humidity 19%
Rainfall 0.00 in
Snow Depth 0 in
UV 2 out of 12
Pollen 8.70 out of 12
Air Quality Not available.
Flu Activity Not available.
METAR KLAM 302355Z AUTO 24004KT 10SM CLR 26/00 A3018 RMK AO2 T02631004 10273 20233

More Conditions Fewer Conditions

Pressure 30.18 in
Visibility 10.0 miles
Clouds Clear
Heat Index 81 °F
Dew Point 37 °F
Humidity 19%
Rainfall 0.00 in
Snow Depth 0 in
UV 2 out of 12
Pollen 8.70 out of 12
Air Quality Not available.
Flu Activity Not available.
METAR KLAM 302355Z AUTO 24004KT 10SM CLR 26/00 A3018 RMK AO2 T02631004 10273 20233

More Conditions Fewer Conditions

10-Day Weather Forecast

Almanac

Astronomy

Aug. 30, 2014 Rise Set
Actual Time 6:35 AM MDT 7:35 PM MDT
Civil Twilight 6:08 AM MDT 8:01 PM MDT
Nautical Twilight 5:37 AM MDT 8:32 PM MDT
Astronomical Twilight 5:04 AM MDT 9:05 PM MDT
Moon 11:15 AM MDT (8/30) 10:21 PM MDT (8/30)
Length of Visible Light 13h 52m
Length of Day
13h 00m
Tomorrow will be 2m 12s shorter.
Waxing Crescent, 26% of the Moon is Illuminated
Today
Waxing Crescent
Sep 2
First Quarter
Sep 8
Full
Sep 15
Last Quarter
Sep 24
New

Today's Extremes

State Highs State Lows

Community

WunderPhotos

Upload Photos

1,748,696 photos uploaded!

Nearby

Snow Depth

Station Depth Elevation
Quemazon 0 in 9500 ft
Wesner Springs 1 in 11120 ft
Tolby 0 in 10180 ft
Red River Pass #2 0 in 9850 ft
Sierra Blanca 0 in 10280 ft

Earthquake Activity

City Distance Mag. Time & Date
No recent earthquake activity has been reported nearby.
Minimum magnitude displayed is 2.5.

Coastal Water Temperatures

Place Temperature
No Stations Reporting

Nearby Weather Stations